sensor_id;sensor_type;location;lat;lon;timestamp;pressure;altitude;pressure_sealevel;temperature;humidity
13209;BME280;6669;42.678;23.332;2023-04-03T00:01:22;93930.78;;;8.90;100.00
13209;BME280;6669;42.678;23.332;2023-04-03T00:03:50;93934.34;;;8.89;100.00
13209;BME280;6669;42.678;23.332;2023-04-03T00:06:20;93930.59;;;8.92;100.00
13209;BME280;6669;42.678;23.332;2023-04-03T00:08:48;93930.59;;;8.92;100.00
13209;BME280;6669;42.678;23.332;2023-04-03T00:11:17;93909.94;;;8.69;100.00
13209;BME280;6669;42.678;23.332;2023-04-03T00:13:45;93923.34;;;8.72;100.00
13209;BME280;6669;42.678;23.332;2023-04-03T00:16:13;93927.25;;;8.53;100.00
13209;BME280;6669;42.678;23.332;2023-04-03T00:18:42;93921.56;;;8.34;100.00
13209;BME280;6669;42.678;23.332;2023-04-03T00:21:12;93914.19;;;8.23;100.00
13209;BME280;6669;42.678;23.332;2023-04-03T00:23:42;93917.09;;;8.05;100.00
13209;BME280;6669;42.678;23.332;2023-04-03T00:26:10;93911.00;;;7.98;100.00
13209;BME280;6669;42.678;23.332;2023-04-03T00:28:38;93906.88;;;7.89;100.00
13209;BME280;6669;42.678;23.332;2023-04-03T00:31:06;93924.47;;;7.93;100.00
13209;BME280;6669;42.678;23.332;2023-04-03T00:33:34;93912.34;;;7.94;100.00
13209;BME280;6669;42.678;23.332;2023-04-03T00:36:06;93892.03;;;7.82;100.00
13209;BME280;6669;42.678;23.332;2023-04-03T00:38:34;93917.19;;;7.97;100.00
13209;BME280;6669;42.678;23.332;2023-04-03T00:41:04;93917.78;;;7.99;100.00
13209;BME280;6669;42.678;23.332;2023-04-03T00:43:32;93902.63;;;7.73;100.00
13209;BME280;6669;42.678;23.332;2023-04-03T00:46:00;93926.88;;;7.95;100.00
13209;BME280;6669;42.678;23.332;2023-04-03T00:48:31;93926.88;;;7.95;100.00
13209;BME280;6669;42.678;23.332;2023-04-03T00:51:00;93928.91;;;7.84;100.00
13209;BME280;6669;42.678;23.332;2023-04-03T00:53:32;93923.91;;;7.83;100.00
13209;BME280;6669;42.678;23.332;2023-04-03T00:56:01;93918.47;;;7.69;100.00
13209;BME280;6669;42.678;23.332;2023-04-03T00:58:38;93901.13;;;7.55;100.00
13209;BME280;6669;42.678;23.332;2023-04-03T01:01:12;93926.78;;;7.65;100.00
13209;BME280;6669;42.678;23.332;2023-04-03T01:03:42;93940.81;;;7.62;100.00
13209;BME280;6669;42.678;23.332;2023-04-03T01:06:10;93917.78;;;7.52;100.00
13209;BME280;6669;42.678;23.332;2023-04-03T01:08:38;93932.63;;;7.59;100.00
13209;BME280;6669;42.678;23.332;2023-04-03T01:11:06;93933.13;;;7.54;100.00
13209;BME280;6669;42.678;23.332;2023-04-03T01:13:36;93935.63;;;7.71;100.00
13209;BME280;6669;42.678;23.332;2023-04-03T01:16:05;93929.28;;;7.73;100.00
13209;BME280;6669;42.678;23.332;2023-04-03T01:18:35;93929.59;;;7.78;100.00
13209;BME280;6669;42.678;23.332;2023-04-03T01:21:30;93929.28;;;7.73;100.00
13209;BME280;6669;42.678;23.332;2023-04-03T01:24:25;93926.91;;;7.63;100.00
13209;BME280;6669;42.678;23.332;2023-04-03T01:26:55;93922.59;;;7.56;100.00
13209;BME280;6669;42.678;23.332;2023-04-03T01:29:24;93931.69;;;7.51;100.00
13209;BME280;6669;42.678;23.332;2023-04-03T01:31:56;93930.25;;;7.49;100.00
13209;BME280;6669;42.678;23.332;2023-04-03T01:34:25;93932.84;;;7.41;100.00
13209;BME280;6669;42.678;23.332;2023-04-03T01:36:53;93931.28;;;7.31;100.00
13209;BME280;6669;42.678;23.332;2023-04-03T01:39:22;93928.75;;;7.23;100.00
13209;BME280;6669;42.678;23.332;2023-04-03T01:41:50;93920.41;;;7.13;100.00
13209;BME280;6669;42.678;23.332;2023-04-03T01:44:18;93933.78;;;7.16;100.00
13209;BME280;6669;42.678;23.332;2023-04-03T01:46:46;93929.63;;;7.07;100.00
13209;BME280;6669;42.678;23.332;2023-04-03T01:49:15;93928.66;;;7.00;100.00
13209;BME280;6669;42.678;23.332;2023-04-03T01:51:43;93933.81;;;7.00;100.00
13209;BME280;6669;42.678;23.332;2023-04-03T01:54:11;93933.81;;;7.00;100.00
13209;BME280;6669;42.678;23.332;2023-04-03T01:56:40;93936.63;;;6.90;100.00
13209;BME280;6669;42.678;23.332;2023-04-03T01:59:08;93931.63;;;6.89;100.00
13209;BME280;6669;42.678;23.332;2023-04-03T02:01:36;93934.53;;;6.85;100.00
13209;BME280;6669;42.678;23.332;2023-04-03T02:04:04;93935.97;;;6.88;100.00
13209;BME280;6669;42.678;23.332;2023-04-03T02:06:33;93935.00;;;6.89;100.00
13209;BME280;6669;42.678;23.332;2023-04-03T02:09:01;93930.94;;;6.95;100.00
13209;BME280;6669;42.678;23.332;2023-04-03T02:11:29;93929.19;;;6.87;100.00
13209;BME280;6669;42.678;23.332;2023-04-03T02:13:57;93941.31;;;6.86;100.00
13209;BME280;6669;42.678;23.332;2023-04-03T02:16:25;93936.31;;;6.85;100.00
13209;BME280;6669;42.678;23.332;2023-04-03T02:18:53;93953.00;;;6.66;100.00
13209;BME280;6669;42.678;23.332;2023-04-03T02:21:21;93943.78;;;6.63;100.00
13209;BME280;6669;42.678;23.332;2023-04-03T02:23:50;93948.63;;;6.66;100.00
13209;BME280;6669;42.678;23.332;2023-04-03T02:26:18;93939.28;;;6.57;100.00
13209;BME280;6669;42.678;23.332;2023-04-03T02:28:46;93924.31;;;6.44;100.00
13209;BME280;6669;42.678;23.332;2023-04-03T02:31:14;93924.94;;;6.38;100.00
13209;BME280;6669;42.678;23.332;2023-04-03T02:33:42;93921.91;;;6.26;100.00
13209;BME280;6669;42.678;23.332;2023-04-03T02:36:10;93920.09;;;6.18;100.00
13209;BME280;6669;42.678;23.332;2023-04-03T02:38:38;93922.38;;;6.13;100.00
13209;BME280;6669;42.678;23.332;2023-04-03T02:41:09;93920.28;;;6.09;100.00
13209;BME280;6669;42.678;23.332;2023-04-03T02:43:38;93920.09;;;6.02;100.00
13209;BME280;6669;42.678;23.332;2023-04-03T02:46:06;93923.84;;;6.08;100.00
13209;BME280;6669;42.678;23.332;2023-04-03T02:48:34;93898.16;;;5.89;100.00
13209;BME280;6669;42.678;23.332;2023-04-03T02:51:03;93890.59;;;5.80;100.00
13209;BME280;6669;42.678;23.332;2023-04-03T02:53:31;93888.34;;;5.77;100.00
13209;BME280;6669;42.678;23.332;2023-04-03T02:55:59;93909.94;;;5.92;100.00
13209;BME280;6669;42.678;23.332;2023-04-03T02:58:28;93907.53;;;5.91;100.00
13209;BME280;6669;42.678;23.332;2023-04-03T03:00:56;93902.84;;;5.86;100.00
13209;BME280;6669;42.678;23.332;2023-04-03T03:03:24;93904.28;;;5.88;100.00
13209;BME280;6669;42.678;23.332;2023-04-03T03:06:01;93883.31;;;5.75;100.00
13209;BME280;6669;42.678;23.332;2023-04-03T03:08:29;93907.19;;;5.94;100.00
13209;BME280;6669;42.678;23.332;2023-04-03T03:10:57;93881.88;;;5.81;100.00
13209;BME280;6669;42.678;23.332;2023-04-03T03:13:25;93899.13;;;5.88;100.00
13209;BME280;6669;42.678;23.332;2023-04-03T03:15:55;93865.25;;;5.75;100.00
13209;BME280;6669;42.678;23.332;2023-04-03T03:18:23;93892.03;;;5.82;100.00
13209;BME280;6669;42.678;23.332;2023-04-03T03:20:52;93901.69;;;5.80;100.00
13209;BME280;6669;42.678;23.332;2023-04-03T03:23:21;93894.16;;;5.87;100.00
13209;BME280;6669;42.678;23.332;2023-04-03T03:25:53;93871.88;;;5.69;100.00
13209;BME280;6669;42.678;23.332;2023-04-03T03:28:22;93895.75;;;5.80;100.00
13209;BME280;6669;42.678;23.332;2023-04-03T03:30:50;93889.59;;;5.72;100.00
13209;BME280;6669;42.678;23.332;2023-04-03T03:33:19;93861.09;;;5.57;100.00
13209;BME280;6669;42.678;23.332;2023-04-03T03:35:47;93888.97;;;5.79;100.00
13209;BME280;6669;42.678;23.332;2023-04-03T03:38:15;93899.94;;;5.89;100.00
13209;BME280;6669;42.678;23.332;2023-04-03T03:40:43;93903.66;;;5.78;100.00
13209;BME280;6669;42.678;23.332;2023-04-03T03:43:11;93907.66;;;5.72;100.00
13209;BME280;6669;42.678;23.332;2023-04-03T03:45:39;93900.41;;;5.68;100.00
13209;BME280;6669;42.678;23.332;2023-04-03T03:48:07;93895.56;;;5.65;100.00
13209;BME280;6669;42.678;23.332;2023-04-03T03:50:37;93898.13;;;5.65;100.00
13209;BME280;6669;42.678;23.332;2023-04-03T03:53:05;93903.63;;;5.62;100.00
13209;BME280;6669;42.678;23.332;2023-04-03T03:55:33;93903.13;;;5.58;100.00
13209;BME280;6669;42.678;23.332;2023-04-03T03:58:01;93857.81;;;5.22;100.00
13209;BME280;6669;42.678;23.332;2023-04-03T04:00:30;93875.22;;;5.37;100.00
13209;BME280;6669;42.678;23.332;2023-04-03T04:02:58;93902.34;;;5.57;100.00
13209;BME280;6669;42.678;23.332;2023-04-03T04:05:27;93908.63;;;5.55;100.00
13209;BME280;6669;42.678;23.332;2023-04-03T04:07:57;93896.38;;;5.49;100.00
13209;BME280;6669;42.678;23.332;2023-04-03T04:10:24;93902.16;;;5.51;100.00
13209;BME280;6669;42.678;23.332;2023-04-03T04:12:52;93901.50;;;5.49;100.00
13209;BME280;6669;42.678;23.332;2023-04-03T04:15:23;93899.56;;;5.51;100.00
13209;BME280;6669;42.678;23.332;2023-04-03T04:17:52;93900.84;;;5.47;100.00
13209;BME280;6669;42.678;23.332;2023-04-03T04:20:21;93893.13;;;5.38;100.00
13209;BME280;6669;42.678;23.332;2023-04-03T04:22:49;93916.81;;;5.59;100.00
13209;BME280;6669;42.678;23.332;2023-04-03T04:25:18;93924.25;;;5.62;100.00
13209;BME280;6669;42.678;23.332;2023-04-03T04:27:46;93910.22;;;5.64;100.00
13209;BME280;6669;42.678;23.332;2023-04-03T04:30:14;93918.47;;;5.76;100.00
13209;BME280;6669;42.678;23.332;2023-04-03T04:32:42;93919.59;;;5.82;100.00
13209;BME280;6669;42.678;23.332;2023-04-03T04:35:10;93917.19;;;5.88;100.00
13209;BME280;6669;42.678;23.332;2023-04-03T04:37:42;93927.97;;;5.84;100.00
13209;BME280;6669;42.678;23.332;2023-04-03T04:40:10;93933.78;;;5.86;100.00
13209;BME280;6669;42.678;23.332;2023-04-03T04:42:40;93934.91;;;5.83;100.00
13209;BME280;6669;42.678;23.332;2023-04-03T04:45:08;93927.47;;;5.80;100.00
13209;BME280;6669;42.678;23.332;2023-04-03T04:47:36;93940.88;;;5.84;100.00
13209;BME280;6669;42.678;23.332;2023-04-03T04:50:05;93917.97;;;5.72;100.00
13209;BME280;6669;42.678;23.332;2023-04-03T04:52:33;93936.88;;;5.89;100.00
13209;BME280;6669;42.678;23.332;2023-04-03T04:55:02;93941.38;;;5.96;100.00
13209;BME280;6669;42.678;23.332;2023-04-03T04:57:30;93939.63;;;6.04;100.00
13209;BME280;6669;42.678;23.332;2023-04-03T04:59:59;93935.28;;;6.05;100.00
13209;BME280;6669;42.678;23.332;2023-04-03T05:02:27;93939.78;;;6.03;100.00
13209;BME280;6669;42.678;23.332;2023-04-03T05:04:55;93951.41;;;6.15;100.00
13209;BME280;6669;42.678;23.332;2023-04-03T05:07:24;93936.09;;;6.14;100.00
13209;BME280;6669;42.678;23.332;2023-04-03T05:09:52;93952.88;;;6.26;100.00
13209;BME280;6669;42.678;23.332;2023-04-03T05:12:20;93964.00;;;6.27;100.00
13209;BME280;6669;42.678;23.332;2023-04-03T05:14:48;93961.72;;;6.32;100.00
13209;BME280;6669;42.678;23.332;2023-04-03T05:17:17;93968.50;;;6.41;100.00
13209;BME280;6669;42.678;23.332;2023-04-03T05:19:46;93973.19;;;6.46;100.00
13209;BME280;6669;42.678;23.332;2023-04-03T05:22:14;93975.59;;;6.47;100.00
13209;BME280;6669;42.678;23.332;2023-04-03T05:24:42;93975.44;;;6.57;100.00
13209;BME280;6669;42.678;23.332;2023-04-03T05:27:10;93970.41;;;6.64;100.00
13209;BME280;6669;42.678;23.332;2023-04-03T05:29:37;93965.88;;;6.74;100.00
13209;BME280;6669;42.678;23.332;2023-04-03T05:32:06;93961.03;;;6.79;100.00
13209;BME280;6669;42.678;23.332;2023-04-03T05:34:35;93967.63;;;6.90;100.00
13209;BME280;6669;42.678;23.332;2023-04-03T05:37:03;93967.63;;;6.82;100.00
13209;BME280;6669;42.678;23.332;2023-04-03T05:39:32;93955.84;;;6.87;100.00
13209;BME280;6669;42.678;23.332;2023-04-03T05:42:00;93958.88;;;6.99;100.00
13209;BME280;6669;42.678;23.332;2023-04-03T05:44:28;93963.38;;;7.06;100.00
13209;BME280;6669;42.678;23.332;2023-04-03T05:46:56;93951.78;;;7.01;100.00
13209;BME280;6669;42.678;23.332;2023-04-03T05:49:24;93966.22;;;7.19;100.00
13209;BME280;6669;42.678;23.332;2023-04-03T05:51:54;93956.38;;;7.23;100.00
13209;BME280;6669;42.678;23.332;2023-04-03T05:54:24;93948.78;;;7.29;100.00
13209;BME280;6669;42.678;23.332;2023-04-03T05:56:52;93950.03;;;7.33;100.00
13209;BME280;6669;42.678;23.332;2023-04-03T05:59:20;93953.41;;;7.42;100.00
13209;BME280;6669;42.678;23.332;2023-04-03T06:01:48;93955.63;;;7.45;100.00
13209;BME280;6669;42.678;23.332;2023-04-03T06:04:17;93954.00;;;7.44;100.00
13209;BME280;6669;42.678;23.332;2023-04-03T06:06:47;93949.81;;;7.43;100.00
13209;BME280;6669;42.678;23.332;2023-04-03T06:09:17;93940.09;;;7.53;100.00
13209;BME280;6669;42.678;23.332;2023-04-03T06:11:47;93930.41;;;7.47;100.00
13209;BME280;6669;42.678;23.332;2023-04-03T06:14:15;93933.59;;;7.58;100.00
13209;BME280;6669;42.678;23.332;2023-04-03T06:16:43;93917.44;;;7.56;100.00
13209;BME280;6669;42.678;23.332;2023-04-03T06:19:12;93912.91;;;7.58;100.00
13209;BME280;6669;42.678;23.332;2023-04-03T06:21:40;93918.59;;;7.76;100.00
13209;BME280;6669;42.678;23.332;2023-04-03T06:24:10;93924.38;;;7.87;100.00
13209;BME280;6669;42.678;23.332;2023-04-03T06:26:41;93934.75;;;8.01;100.00
13209;BME280;6669;42.678;23.332;2023-04-03T06:29:09;93945.06;;;8.10;100.00
13209;BME280;6669;42.678;23.332;2023-04-03T06:31:38;93938.50;;;8.22;100.00
13209;BME280;6669;42.678;23.332;2023-04-03T06:34:06;93939.63;;;8.19;100.00
13209;BME280;6669;42.678;23.332;2023-04-03T06:36:36;93940.28;;;8.22;100.00
13209;BME280;6669;42.678;23.332;2023-04-03T06:39:05;93930.88;;;8.21;100.00
13209;BME280;6669;42.678;23.332;2023-04-03T06:41:33;93945.97;;;8.40;100.00
13209;BME280;6669;42.678;23.332;2023-04-03T06:44:04;93948.84;;;8.45;100.00
13209;BME280;6669;42.678;23.332;2023-04-03T06:46:32;93957.19;;;8.56;100.00
13209;BME280;6669;42.678;23.332;2023-04-03T06:49:03;93953.44;;;8.58;100.00
13209;BME280;6669;42.678;23.332;2023-04-03T06:51:34;93941.81;;;8.54;100.00
13209;BME280;6669;42.678;23.332;2023-04-03T06:54:05;93951.56;;;8.67;100.00
13209;BME280;6669;42.678;23.332;2023-04-03T06:56:34;93954.06;;;8.75;100.00
13209;BME280;6669;42.678;23.332;2023-04-03T06:59:04;93955.78;;;8.83;100.00
13209;BME280;6669;42.678;23.332;2023-04-03T07:01:32;93948.34;;;8.65;100.00
13209;BME280;6669;42.678;23.332;2023-04-03T07:04:00;93948.34;;;8.65;100.00
13209;BME280;6669;42.678;23.332;2023-04-03T07:06:28;93949.63;;;8.84;100.00
13209;BME280;6669;42.678;23.332;2023-04-03T07:08:57;93951.31;;;8.92;100.00
13209;BME280;6669;42.678;23.332;2023-04-03T07:11:25;93949.44;;;9.00;100.00
13209;BME280;6669;42.678;23.332;2023-04-03T07:13:54;93942.19;;;8.96;100.00
13209;BME280;6669;42.678;23.332;2023-04-03T07:16:24;93926.38;;;8.91;100.00
13209;BME280;6669;42.678;23.332;2023-04-03T07:18:52;93929.69;;;8.99;100.00
13209;BME280;6669;42.678;23.332;2023-04-03T07:21:20;93927.72;;;9.02;100.00
13209;BME280;6669;42.678;23.332;2023-04-03T07:23:49;93938.53;;;8.90;100.00
13209;BME280;6669;42.678;23.332;2023-04-03T07:26:17;93925.50;;;8.83;100.00
13209;BME280;6669;42.678;23.332;2023-04-03T07:28:47;93930.50;;;9.00;100.00
13209;BME280;6669;42.678;23.332;2023-04-03T07:31:17;93938.09;;;9.02;100.00
13209;BME280;6669;42.678;23.332;2023-04-03T07:33:46;93931.84;;;9.11;100.00
13209;BME280;6669;42.678;23.332;2023-04-03T07:36:17;93928.63;;;9.09;100.00
13209;BME280;6669;42.678;23.332;2023-04-03T07:38:46;93934.44;;;9.26;100.00
13209;BME280;6669;42.678;23.332;2023-04-03T07:41:16;93923.47;;;9.45;100.00
13209;BME280;6669;42.678;23.332;2023-04-03T07:43:44;93917.13;;;9.48;100.00
13209;BME280;6669;42.678;23.332;2023-04-03T07:46:13;93901.31;;;9.64;100.00
13209;BME280;6669;42.678;23.332;2023-04-03T07:48:41;93918.03;;;9.98;100.00
13209;BME280;6669;42.678;23.332;2023-04-03T07:51:10;93902.91;;;10.02;100.00
13209;BME280;6669;42.678;23.332;2023-04-03T07:53:39;93910.63;;;10.17;100.00
13209;BME280;6669;42.678;23.332;2023-04-03T07:56:08;93886.06;;;10.20;100.00
13209;BME280;6669;42.678;23.332;2023-04-03T07:58:36;93904.81;;;10.37;100.00
13209;BME280;6669;42.678;23.332;2023-04-03T08:01:04;93904.69;;;10.45;100.00
13209;BME280;6669;42.678;23.332;2023-04-03T08:03:32;93892.72;;;10.29;100.00
13209;BME280;6669;42.678;23.332;2023-04-03T08:06:02;93891.63;;;10.38;100.00
13209;BME280;6669;42.678;23.332;2023-04-03T08:08:34;93905.94;;;10.56;100.00
13209;BME280;6669;42.678;23.332;2023-04-03T08:11:02;93907.03;;;10.68;100.00
13209;BME280;6669;42.678;23.332;2023-04-03T08:13:32;93899.25;;;10.68;100.00
13209;BME280;6669;42.678;23.332;2023-04-03T08:16:07;93879.53;;;10.52;100.00
13209;BME280;6669;42.678;23.332;2023-04-03T08:18:36;93890.22;;;10.64;100.00
13209;BME280;6669;42.678;23.332;2023-04-03T08:21:06;93874.56;;;10.57;100.00
13209;BME280;6669;42.678;23.332;2023-04-03T08:23:36;93896.38;;;10.56;100.00
13209;BME280;6669;42.678;23.332;2023-04-03T08:26:06;93897.88;;;10.72;100.00
13209;BME280;6669;42.678;23.332;2023-04-03T08:28:34;93885.56;;;10.88;100.00
13209;BME280;6669;42.678;23.332;2023-04-03T08:31:04;93897.50;;;11.17;100.00
13209;BME280;6669;42.678;23.332;2023-04-03T08:33:34;93889.53;;;11.19;100.00
13209;BME280;6669;42.678;23.332;2023-04-03T08:36:03;93864.28;;;11.19;100.00
13209;BME280;6669;42.678;23.332;2023-04-03T08:38:32;93867.69;;;11.20;100.00
13209;BME280;6669;42.678;23.332;2023-04-03T08:41:05;93874.16;;;11.31;100.00
13209;BME280;6669;42.678;23.332;2023-04-03T08:43:41;93856.34;;;11.34;100.00
13209;BME280;6669;42.678;23.332;2023-04-03T08:46:14;93867.41;;;11.56;100.00
13209;BME280;6669;42.678;23.332;2023-04-03T08:48:45;93842.09;;;11.30;100.00
13209;BME280;6669;42.678;23.332;2023-04-03T08:51:15;93866.81;;;11.54;100.00
13209;BME280;6669;42.678;23.332;2023-04-03T08:53:51;93866.63;;;11.69;100.00
13209;BME280;6669;42.678;23.332;2023-04-03T08:56:25;93863.25;;;11.82;100.00
13209;BME280;6669;42.678;23.332;2023-04-03T08:58:56;93834.81;;;11.81;100.00
13209;BME280;6669;42.678;23.332;2023-04-03T09:01:31;93848.28;;;12.04;100.00
13209;BME280;6669;42.678;23.332;2023-04-03T09:04:02;93855.91;;;12.26;100.00
13209;BME280;6669;42.678;23.332;2023-04-03T09:06:32;93853.88;;;12.28;100.00
13209;BME280;6669;42.678;23.332;2023-04-03T09:09:09;93849.69;;;12.07;100.00
13209;BME280;6669;42.678;23.332;2023-04-03T09:11:48;93835.09;;;12.19;100.00
13209;BME280;6669;42.678;23.332;2023-04-03T09:14:26;93829.63;;;12.34;100.00
13209;BME280;6669;42.678;23.332;2023-04-03T09:17:00;93830.06;;;12.31;100.00
13209;BME280;6669;42.678;23.332;2023-04-03T09:19:37;93829.66;;;12.41;100.00
13209;BME280;6669;42.678;23.332;2023-04-03T09:22:15;93812.59;;;12.45;100.00
13209;BME280;6669;42.678;23.332;2023-04-03T09:24:45;93818.16;;;12.62;100.00
13209;BME280;6669;42.678;23.332;2023-04-03T09:27:16;93829.75;;;12.80;100.00
13209;BME280;6669;42.678;23.332;2023-04-03T09:29:44;93780.44;;;12.71;100.00
13209;BME280;6669;42.678;23.332;2023-04-03T09:32:21;93797.22;;;12.96;100.00
13209;BME280;6669;42.678;23.332;2023-04-03T09:34:51;93820.38;;;13.24;100.00
13209;BME280;6669;42.678;23.332;2023-04-03T09:37:50;93793.84;;;13.27;100.00
13209;BME280;6669;42.678;23.332;2023-04-03T09:40:48;93808.59;;;13.53;100.00
13209;BME280;6669;42.678;23.332;2023-04-03T09:43:28;93820.38;;;13.69;100.00
13209;BME280;6669;42.678;23.332;2023-04-03T09:46:17;93800.81;;;13.79;100.00
13209;BME280;6669;42.678;23.332;2023-04-03T09:48:52;93803.06;;;14.00;100.00
13209;BME280;6669;42.678;23.332;2023-04-03T09:51:35;93807.38;;;13.88;100.00
13209;BME280;6669;42.678;23.332;2023-04-03T09:54:25;93800.50;;;13.94;100.00
13209;BME280;6669;42.678;23.332;2023-04-03T09:56:54;93788.13;;;13.82;100.00
13209;BME280;6669;42.678;23.332;2023-04-03T09:59:25;93793.00;;;14.04;100.00
13209;BME280;6669;42.678;23.332;2023-04-03T10:01:59;93793.13;;;13.84;100.00
13209;BME280;6669;42.678;23.332;2023-04-03T10:04:38;93792.75;;;13.80;100.00
13209;BME280;6669;42.678;23.332;2023-04-03T10:07:28;93793.44;;;13.69;100.00
13209;BME280;6669;42.678;23.332;2023-04-03T10:10:15;93794.06;;;13.64;100.00
13209;BME280;6669;42.678;23.332;2023-04-03T10:12:48;93772.56;;;13.37;100.00
13209;BME280;6669;42.678;23.332;2023-04-03T10:15:19;93786.00;;;13.40;100.00
13209;BME280;6669;42.678;23.332;2023-04-03T10:17:54;93798.66;;;13.30;100.00
13209;BME280;6669;42.678;23.332;2023-04-03T10:20:36;93796.47;;;13.27;100.00
13209;BME280;6669;42.678;23.332;2023-04-03T10:23:16;93776.25;;;13.16;100.00
13209;BME280;6669;42.678;23.332;2023-04-03T10:25:55;93783.94;;;13.04;100.00
13209;BME280;6669;42.678;23.332;2023-04-03T10:28:33;93778.28;;;13.14;100.00
13209;BME280;6669;42.678;23.332;2023-04-03T10:31:10;93758.53;;;12.86;100.00
13209;BME280;6669;42.678;23.332;2023-04-03T10:33:51;93768.22;;;13.11;100.00
13209;BME280;6669;42.678;23.332;2023-04-03T10:36:33;93740.00;;;13.01;100.00
13209;BME280;6669;42.678;23.332;2023-04-03T10:39:09;93763.38;;;13.21;100.00
13209;BME280;6669;42.678;23.332;2023-04-03T10:41:48;93771.63;;;13.18;100.00
13209;BME280;6669;42.678;23.332;2023-04-03T10:44:46;93755.97;;;13.18;100.00
13209;BME280;6669;42.678;23.332;2023-04-03T10:47:21;93757.53;;;13.25;100.00
13209;BME280;6669;42.678;23.332;2023-04-03T10:49:56;93757.63;;;13.05;100.00
13209;BME280;6669;42.678;23.332;2023-04-03T10:52:31;93755.28;;;12.97;100.00
13209;BME280;6669;42.678;23.332;2023-04-03T10:55:17;93744.88;;;12.84;100.00
13209;BME280;6669;42.678;23.332;2023-04-03T10:57:55;93741.69;;;12.82;100.00
13209;BME280;6669;42.678;23.332;2023-04-03T11:00:31;93755.00;;;13.05;100.00
13209;BME280;6669;42.678;23.332;2023-04-03T11:03:08;93755.88;;;12.92;100.00
13209;BME280;6669;42.678;23.332;2023-04-03T11:05:41;93760.66;;;13.02;100.00
13209;BME280;6669;42.678;23.332;2023-04-03T11:08:16;93758.50;;;12.92;100.00
13209;BME280;6669;42.678;23.332;2023-04-03T11:10:50;93727.09;;;12.74;100.00
13209;BME280;6669;42.678;23.332;2023-04-03T11:13:22;93756.50;;;12.88;100.00
13209;BME280;6669;42.678;23.332;2023-04-03T11:15:53;93771.59;;;12.72;100.00
13209;BME280;6669;42.678;23.332;2023-04-03T11:18:28;93770.66;;;12.53;100.00
13209;BME280;6669;42.678;23.332;2023-04-03T11:21:03;93771.09;;;12.43;100.00
13209;BME280;6669;42.678;23.332;2023-04-03T11:23:34;93761.53;;;12.17;100.00
13209;BME280;6669;42.678;23.332;2023-04-03T11:26:17;93762.50;;;11.89;100.00
13209;BME280;6669;42.678;23.332;2023-04-03T11:28:52;93771.13;;;11.83;100.00
13209;BME280;6669;42.678;23.332;2023-04-03T11:31:29;93756.50;;;11.55;100.00
13209;BME280;6669;42.678;23.332;2023-04-03T11:34:12;93745.09;;;11.50;100.00
13209;BME280;6669;42.678;23.332;2023-04-03T11:36:44;93762.72;;;11.68;100.00
13209;BME280;6669;42.678;23.332;2023-04-03T11:39:21;93761.72;;;11.62;100.00
13209;BME280;6669;42.678;23.332;2023-04-03T11:41:52;93761.09;;;11.60;100.00
13209;BME280;6669;42.678;23.332;2023-04-03T11:44:37;93760.50;;;11.44;100.00
13209;BME280;6669;42.678;23.332;2023-04-03T11:47:07;93761.09;;;11.33;100.00
13209;BME280;6669;42.678;23.332;2023-04-03T11:49:58;93758.84;;;11.30;100.00
13209;BME280;6669;42.678;23.332;2023-04-03T11:53:02;93764.03;;;11.17;100.00
13209;BME280;6669;42.678;23.332;2023-04-03T11:55:52;93761.22;;;11.11;100.00
13209;BME280;6669;42.678;23.332;2023-04-03T11:58:24;93753.03;;;11.08;100.00
13209;BME280;6669;42.678;23.332;2023-04-03T12:01:02;93772.81;;;11.02;100.00
13209;BME280;6669;42.678;23.332;2023-04-03T12:06:58;93768.56;;;10.94;100.00
13209;BME280;6669;42.678;23.332;2023-04-03T12:09:29;93777.00;;;10.96;100.00
13209;BME280;6669;42.678;23.332;2023-04-03T12:12:00;93768.31;;;10.76;100.00
13209;BME280;6669;42.678;23.332;2023-04-03T12:14:29;93762.31;;;10.75;100.00
13209;BME280;6669;42.678;23.332;2023-04-03T12:16:57;93767.03;;;10.58;100.00
13209;BME280;6669;42.678;23.332;2023-04-03T12:19:37;93764.00;;;10.55;100.00
13209;BME280;6669;42.678;23.332;2023-04-03T12:22:16;93759.13;;;10.38;100.00
13209;BME280;6669;42.678;23.332;2023-04-03T12:24:49;93757.44;;;10.24;100.00
13209;BME280;6669;42.678;23.332;2023-04-03T12:27:34;93749.31;;;10.34;100.00
13209;BME280;6669;42.678;23.332;2023-04-03T12:30:21;93748.69;;;10.31;100.00
13209;BME280;6669;42.678;23.332;2023-04-03T12:33:17;93744.47;;;10.30;100.00
13209;BME280;6669;42.678;23.332;2023-04-03T12:35:58;93744.47;;;10.30;100.00
13209;BME280;6669;42.678;23.332;2023-04-03T12:39:06;93732.25;;;10.24;100.00
13209;BME280;6669;42.678;23.332;2023-04-03T12:41:43;93728.47;;;10.27;100.00
13209;BME280;6669;42.678;23.332;2023-04-03T12:44:38;93721.50;;;10.27;100.00
13209;BME280;6669;42.678;23.332;2023-04-03T12:47:22;93716.66;;;10.24;100.00
13209;BME280;6669;42.678;23.332;2023-04-03T12:49:52;93683.22;;;10.08;100.00
13209;BME280;6669;42.678;23.332;2023-04-03T12:52:33;93708.09;;;10.24;100.00
13209;BME280;6669;42.678;23.332;2023-04-03T12:55:12;93701.25;;;10.16;100.00
13209;BME280;6669;42.678;23.332;2023-04-03T12:57:41;93685.44;;;10.04;100.00
13209;BME280;6669;42.678;23.332;2023-04-03T13:00:31;93700.81;;;10.06;100.00
13209;BME280;6669;42.678;23.332;2023-04-03T13:03:02;93710.38;;;10.05;100.00
13209;BME280;6669;42.678;23.332;2023-04-03T13:05:32;93714.34;;;10.01;100.00
13209;BME280;6669;42.678;23.332;2023-04-03T13:08:05;93698.31;;;9.91;100.00
13209;BME280;6669;42.678;23.332;2023-04-03T13:10:45;93710.06;;;9.87;100.00
13209;BME280;6669;42.678;23.332;2023-04-03T13:13:15;93685.00;;;9.72;100.00
13209;BME280;6669;42.678;23.332;2023-04-03T13:15:45;93680.59;;;9.66;100.00
13209;BME280;6669;42.678;23.332;2023-04-03T13:18:29;93702.94;;;9.67;100.00
13209;BME280;6669;42.678;23.332;2023-04-03T13:21:03;93693.97;;;9.70;100.00
13209;BME280;6669;42.678;23.332;2023-04-03T13:23:34;93688.94;;;9.61;100.00